createdAt,value
2019-01-30T00:02:28.526Z,10.97
2019-01-30T00:05:03.580Z,12.03
2019-01-30T00:07:37.852Z,10.57
2019-01-30T00:10:16.101Z,10.63
2019-01-30T00:12:50.773Z,9.23
2019-01-30T00:15:21.732Z,11.17
2019-01-30T00:17:54.230Z,11.80
2019-01-30T00:20:30.912Z,10.87
2019-01-30T00:23:08.034Z,10.17
2019-01-30T00:25:45.794Z,10.37
2019-01-30T00:28:22.238Z,9.37
2019-01-30T00:30:56.474Z,11.07
2019-01-30T00:33:30.630Z,8.23
2019-01-30T00:36:02.426Z,10.03
2019-01-30T00:38:39.061Z,8.03
2019-01-30T00:41:15.418Z,7.87
2019-01-30T00:44:04.343Z,8.50
2019-01-30T00:46:24.836Z,7.67
2019-01-30T00:49:05.022Z,7.73
2019-01-30T00:51:42.858Z,8.63
2019-01-30T00:54:32.209Z,9.07
2019-01-30T00:57:07.579Z,12.23
2019-01-30T00:59:42.717Z,10.97
2019-01-30T01:02:25.880Z,9.70
2019-01-30T01:05:09.278Z,11.20
2019-01-30T01:07:47.040Z,10.63
2019-01-30T01:10:23.722Z,10.80
2019-01-30T01:12:58.583Z,12.10
2019-01-30T01:15:44.515Z,11.43
2019-01-30T01:20:02.868Z,13.20
2019-01-30T01:21:03.914Z,12.50
2019-01-30T01:23:43.576Z,10.53
2019-01-30T01:26:19.358Z,8.83
2019-01-30T01:28:52.006Z,11.60
2019-01-30T01:31:23.786Z,11.17
2019-01-30T01:33:54.508Z,11.80
2019-01-30T01:36:25.945Z,10.70
2019-01-30T01:38:55.893Z,9.50
2019-01-30T01:41:25.959Z,11.00
2019-01-30T01:43:58.598Z,11.10
2019-01-30T01:46:32.762Z,11.77
2019-01-30T01:49:24.972Z,10.90
2019-01-30T01:51:56.852Z,12.90
2019-01-30T01:54:29.250Z,12.43
2019-01-30T01:57:02.230Z,11.17
2019-01-30T01:59:41.362Z,11.70
2019-01-30T02:02:19.397Z,10.80
2019-01-30T02:04:54.789Z,11.97
2019-01-30T02:27:15.589Z,8.67
2019-01-30T02:29:50.985Z,7.80
2019-01-30T02:32:26.841Z,7.80
2019-01-30T02:34:58.243Z,7.33
2019-01-30T02:37:31.043Z,6.87
2019-01-30T02:40:02.938Z,7.50
2019-01-30T02:42:36.511Z,7.40
2019-01-30T02:45:11.507Z,7.67
2019-01-30T02:47:44.729Z,8.43
2019-01-30T02:50:18.722Z,8.10
2019-01-30T02:52:51.485Z,5.80
2019-01-30T02:55:28.947Z,6.07
2019-01-30T02:58:03.968Z,8.50
2019-01-30T03:03:33.007Z,9.63
2019-01-30T03:06:05.851Z,8.07
2019-01-30T03:08:39.559Z,9.10
2019-01-30T03:11:18.188Z,9.93
2019-01-30T03:13:50.468Z,10.00
2019-01-30T03:16:21.482Z,9.40
2019-01-30T03:19:02.618Z,7.57
2019-01-30T03:21:35.379Z,9.50
2019-01-30T03:24:08.918Z,12.23
2019-01-30T03:26:57.498Z,10.43
2019-01-30T03:29:23.513Z,10.13
2019-01-30T03:31:54.324Z,11.20
2019-01-30T03:34:28.069Z,11.33
2019-01-30T03:37:03.497Z,10.53
2019-01-30T03:39:37.055Z,10.13
2019-01-30T03:42:09.964Z,9.20
2019-01-30T03:44:45.816Z,9.07
2019-01-30T03:47:17.506Z,9.47
2019-01-30T03:49:57.508Z,10.37
2019-01-30T03:55:29.275Z,8.53
2019-01-30T03:57:59.762Z,7.43
2019-01-30T04:00:40.039Z,9.47
2019-01-30T04:03:09.184Z,6.47
2019-01-30T04:05:39.312Z,8.90
2019-01-30T04:08:24.622Z,10.10
2019-01-30T04:11:20.244Z,10.33
2019-01-30T04:13:57.150Z,9.53
2019-01-30T04:16:30.394Z,10.20
2019-01-30T04:21:58.838Z,10.80
2019-01-30T04:24:43.359Z,10.73
2019-01-30T04:27:27.312Z,11.10
2019-01-30T04:36:16.030Z,10.10
2019-01-30T04:38:51.850Z,9.03
2019-01-30T04:41:26.668Z,11.57
2019-01-30T04:43:59.048Z,11.47
2019-01-30T04:46:38.597Z,12.83
2019-01-30T04:52:02.692Z,9.60
2019-01-30T04:54:43.331Z,9.57
2019-01-30T04:57:22.384Z,12.10
2019-01-30T05:00:03.279Z,6.97
2019-01-30T05:02:46.064Z,6.80
2019-01-30T05:05:34.833Z,8.20
2019-01-30T05:10:57.504Z,7.90
2019-01-30T05:13:33.393Z,9.90
2019-01-30T05:16:14.971Z,10.73
2019-01-30T05:18:49.400Z,7.60
2019-01-30T05:24:39.762Z,10.53
2019-01-30T05:27:28.825Z,8.37
2019-01-30T05:36:25.227Z,7.87
2019-01-30T05:39:28.692Z,8.07
2019-01-30T05:42:05.681Z,11.07
2019-01-30T05:44:52.298Z,10.60
2019-01-30T05:47:26.802Z,10.57
2019-01-30T05:50:01.645Z,10.83
2019-01-30T05:52:41.657Z,12.27
2019-01-30T05:55:26.547Z,12.97
2019-01-30T05:57:57.337Z,13.57
2019-01-30T06:00:33.922Z,13.13
2019-01-30T06:03:13.290Z,12.70
2019-01-30T06:05:45.984Z,12.77
2019-01-30T06:08:20.457Z,9.53
2019-01-30T06:10:51.695Z,12.80
2019-01-30T06:13:25.287Z,12.60
2019-01-30T06:15:56.771Z,7.57
2019-01-30T06:18:30.692Z,5.87
2019-01-30T06:23:55.671Z,8.33
2019-01-30T06:26:48.681Z,12.53
2019-01-30T06:32:28.638Z,9.07
2019-01-30T06:35:06.961Z,11.33
2019-01-30T06:37:42.163Z,13.27
2019-01-30T06:40:29.947Z,12.33
2019-01-30T06:43:03.735Z,12.00
2019-01-30T06:45:38.991Z,13.20
2019-01-30T06:51:29.881Z,9.90
2019-01-30T06:53:59.654Z,11.50
2019-01-30T06:56:32.195Z,15.10
2019-01-30T06:59:08.555Z,12.10
2019-01-30T07:01:43.381Z,13.50
2019-01-30T07:04:21.951Z,12.70
2019-01-30T07:06:54.687Z,11.90
2019-01-30T07:09:31.168Z,7.03
2019-01-30T07:12:00.949Z,7.00
2019-01-30T07:14:36.803Z,8.03
2019-01-30T07:17:09.037Z,10.97
2019-01-30T07:19:41.605Z,7.53
2019-01-30T07:22:14.735Z,11.30
2019-01-30T07:24:45.834Z,10.70
2019-01-30T07:27:23.675Z,8.83
2019-01-30T07:30:00.245Z,12.50
2019-01-30T07:32:42.112Z,11.37
2019-01-30T07:35:11.463Z,9.17
2019-01-30T07:37:48.788Z,11.50
2019-01-30T07:40:25.821Z,9.93
2019-01-30T07:42:57.136Z,11.27
2019-01-30T07:45:28.602Z,12.60
2019-01-30T07:48:11.285Z,11.37
2019-01-30T07:50:44.214Z,15.57
2019-01-30T07:53:15.610Z,12.67
2019-01-30T07:55:51.617Z,16.70
2019-01-30T07:58:30.795Z,8.90
2019-01-30T08:01:17.311Z,12.53
2019-01-30T08:03:48.294Z,15.07
2019-01-30T08:06:31.888Z,16.07
2019-01-30T08:09:04.147Z,16.23
2019-01-30T08:11:35.380Z,18.17
2019-01-30T08:14:11.498Z,12.63
2019-01-30T08:16:54.372Z,10.87
2019-01-30T08:19:20.216Z,10.43
2019-01-30T08:21:51.973Z,9.73
2019-01-30T08:24:27.034Z,11.70
2019-01-30T08:26:58.325Z,11.33
2019-01-30T08:29:30.087Z,11.00
2019-01-30T08:32:06.514Z,10.63
2019-01-30T08:34:37.113Z,13.40
2019-01-30T08:37:06.816Z,14.30
2019-01-30T08:39:39.887Z,9.07
2019-01-30T08:42:19.744Z,9.97
2019-01-30T08:44:52.723Z,10.00
2019-01-30T08:47:31.518Z,11.37
2019-01-30T08:50:04.256Z,11.23
2019-01-30T08:52:38.148Z,13.67
2019-01-30T08:55:13.039Z,14.63
2019-01-30T08:57:46.247Z,11.77
2019-01-30T09:00:21.723Z,13.47
2019-01-30T09:02:51.581Z,12.77
2019-01-30T09:05:29.279Z,11.63
2019-01-30T09:08:02.712Z,14.33
2019-01-30T09:10:37.745Z,8.90
2019-01-30T09:13:27.332Z,8.47
2019-01-30T09:16:02.874Z,10.23
2019-01-30T09:18:36.073Z,9.80
2019-01-30T09:21:15.399Z,11.83
2019-01-30T09:23:49.818Z,8.67
2019-01-30T09:26:22.802Z,9.43
2019-01-30T09:28:55.393Z,12.03
2019-01-30T09:31:28.981Z,11.13
2019-01-30T09:34:13.368Z,11.00
2019-01-30T09:36:58.930Z,11.67
2019-01-30T09:39:29.867Z,12.83
2019-01-30T09:42:08.536Z,12.83
2019-01-30T09:44:41.720Z,13.47
2019-01-30T09:47:11.894Z,11.87
2019-01-30T09:49:43.875Z,12.20
2019-01-30T09:52:13.975Z,13.43
2019-01-30T09:54:46.980Z,17.13
2019-01-30T09:57:21.285Z,14.73
2019-01-30T09:59:50.992Z,15.97
2019-01-30T10:02:27.870Z,17.63
2019-01-30T10:05:04.340Z,16.33
2019-01-30T10:07:41.265Z,18.63
2019-01-30T10:10:15.187Z,15.60
2019-01-30T10:12:53.395Z,14.83
2019-01-30T10:15:29.955Z,13.80
2019-01-30T10:18:03.518Z,13.53
2019-01-30T10:20:35.785Z,14.83
2019-01-30T10:23:06.963Z,13.73
2019-01-30T10:25:36.824Z,13.43
2019-01-30T10:28:16.191Z,14.00
2019-01-30T10:30:43.398Z,12.70
2019-01-30T10:33:17.850Z,11.63
2019-01-30T10:35:50.382Z,10.20
2019-01-30T10:38:20.119Z,10.20
2019-01-30T10:40:51.158Z,13.27
2019-01-30T10:43:25.068Z,12.73
2019-01-30T10:45:56.730Z,10.77
2019-01-30T10:48:30.065Z,13.70
2019-01-30T10:51:02.309Z,11.97
2019-01-30T10:53:36.157Z,11.00
2019-01-30T10:56:12.250Z,11.10
2019-01-30T10:58:46.795Z,13.40
2019-01-30T11:01:21.563Z,12.40
2019-01-30T11:03:57.549Z,14.50
2019-01-30T11:06:25.961Z,11.47
2019-01-30T11:08:57.395Z,11.10
2019-01-30T11:11:32.009Z,9.53
2019-01-30T11:14:09.164Z,13.43
2019-01-30T11:16:35.685Z,14.97
2019-01-30T11:19:07.147Z,13.83
2019-01-30T11:21:52.932Z,13.47
2019-01-30T11:24:26.721Z,16.20
2019-01-30T11:27:03.944Z,13.73
2019-01-30T11:29:37.922Z,13.90
2019-01-30T11:32:16.959Z,18.33
2019-01-30T11:34:50.534Z,13.60
2019-01-30T11:37:23.832Z,15.17
2019-01-30T11:40:03.704Z,14.60
2019-01-30T11:42:35.144Z,15.00
2019-01-30T11:45:21.776Z,14.37
2019-01-30T11:47:52.938Z,15.53
2019-01-30T11:50:24.249Z,17.13
2019-01-30T11:52:56.678Z,15.27
2019-01-30T11:55:30.786Z,20.03
2019-01-30T11:58:03.764Z,18.67
2019-01-30T12:00:50.706Z,16.90
2019-01-30T12:03:21.965Z,15.83
2019-01-30T12:05:56.163Z,18.97
2019-01-30T12:08:31.536Z,16.90
2019-01-30T12:11:08.306Z,19.50
2019-01-30T12:13:45.262Z,18.87
2019-01-30T12:16:27.908Z,18.17
2019-01-30T12:18:59.004Z,18.50
2019-01-30T12:21:34.398Z,18.27
2019-01-30T12:24:04.582Z,16.50
2019-01-30T12:26:37.363Z,20.13
2019-01-30T12:29:11.665Z,17.97
2019-01-30T12:31:42.639Z,19.80
2019-01-30T12:34:15.835Z,20.13
2019-01-30T12:36:47.395Z,18.30
2019-01-30T12:39:22.916Z,18.57
2019-01-30T12:41:54.402Z,21.57
2019-01-30T12:44:26.364Z,17.37
2019-01-30T12:46:59.804Z,18.63
2019-01-30T12:49:29.680Z,17.37
2019-01-30T12:51:59.744Z,17.33
2019-01-30T12:54:31.229Z,15.73
2019-01-30T12:57:08.542Z,15.23
2019-01-30T12:59:43.416Z,18.53
2019-01-30T13:02:20.078Z,19.03
2019-01-30T13:04:53.612Z,18.97
2019-01-30T13:07:25.102Z,19.73
2019-01-30T13:10:04.296Z,20.53
2019-01-30T13:12:37.202Z,19.93
2019-01-30T13:15:32.277Z,21.27
2019-01-30T13:18:18.217Z,17.20
2019-01-30T13:20:50.356Z,17.33
2019-01-30T13:23:24.303Z,16.53
2019-01-30T13:25:55.886Z,15.10
2019-01-30T13:28:27.799Z,18.27
2019-01-30T13:31:03.548Z,27.60
2019-01-30T13:33:36.363Z,21.60
2019-01-30T13:36:11.131Z,17.83
2019-01-30T13:38:46.916Z,18.13
2019-01-30T13:41:22.756Z,14.47
2019-01-30T13:43:55.249Z,21.77
2019-01-30T13:46:32.520Z,15.30
2019-01-30T13:49:05.930Z,14.40
2019-01-30T13:51:38.349Z,14.00
2019-01-30T13:54:14.553Z,13.13
2019-01-30T13:56:45.428Z,13.43
2019-01-30T13:59:26.356Z,14.47
2019-01-30T14:02:08.239Z,16.47
2019-01-30T14:04:35.846Z,14.80
2019-01-30T14:07:06.371Z,15.47
2019-01-30T14:09:40.791Z,16.30
2019-01-30T14:12:12.468Z,19.10
2019-01-30T14:14:43.850Z,15.17
2019-01-30T14:17:13.557Z,13.03
2019-01-30T14:19:44.079Z,11.03
2019-01-30T14:22:13.799Z,16.00
2019-01-30T14:24:46.987Z,13.17
2019-01-30T14:27:18.142Z,11.43
2019-01-30T14:29:58.235Z,12.67
2019-01-30T14:32:25.640Z,14.60
2019-01-30T14:34:57.579Z,12.83
2019-01-30T14:37:34.342Z,11.97
2019-01-30T14:40:06.865Z,13.53
2019-01-30T14:42:36.523Z,15.20
2019-01-30T14:45:09.385Z,15.47
2019-01-30T14:47:40.375Z,12.50
2019-01-30T14:50:13.408Z,15.17
2019-01-30T14:52:45.057Z,12.27
2019-01-30T14:55:16.541Z,11.43
2019-01-30T14:57:48.769Z,11.30
2019-01-30T15:00:30.255Z,14.90
2019-01-30T15:03:00.149Z,15.23
2019-01-30T15:05:31.358Z,15.83
2019-01-30T15:08:01.027Z,16.07
2019-01-30T15:10:33.624Z,16.83
2019-01-30T15:13:07.992Z,18.83
2019-01-30T15:15:39.367Z,18.90
2019-01-30T15:18:09.097Z,20.87
2019-01-30T15:20:41.957Z,19.97
2019-01-30T15:23:15.830Z,19.57
2019-01-30T15:25:47.453Z,17.80
2019-01-30T15:28:17.330Z,15.30
2019-01-30T15:30:47.129Z,14.80
2019-01-30T15:33:16.764Z,14.40
2019-01-30T15:35:46.417Z,17.60
2019-01-30T15:38:22.785Z,19.33
2019-01-30T15:40:54.523Z,20.70
2019-01-30T15:43:24.604Z,17.07
2019-01-30T15:45:54.245Z,20.33
2019-01-30T15:48:25.495Z,18.53
2019-01-30T15:50:58.433Z,15.50
2019-01-30T15:53:29.721Z,14.53
2019-01-30T15:55:59.486Z,14.97
2019-01-30T15:58:30.742Z,15.83
2019-01-30T16:01:04.807Z,15.23
2019-01-30T16:03:37.857Z,16.57
2019-01-30T16:06:08.446Z,21.13
2019-01-30T16:08:39.463Z,20.93
2019-01-30T16:11:10.075Z,17.63
2019-01-30T16:13:40.272Z,13.77
2019-01-30T16:16:10.100Z,14.17
2019-01-30T16:18:55.340Z,16.57
2019-01-30T16:21:26.676Z,14.20
2019-01-30T16:23:58.755Z,17.60
2019-01-30T16:26:31.091Z,21.43
2019-01-30T16:29:01.088Z,14.53
2019-01-30T16:31:32.651Z,15.90
2019-01-30T16:34:02.284Z,19.40
2019-01-30T16:36:33.326Z,12.80
2019-01-30T16:39:03.949Z,14.17
2019-01-30T16:41:34.775Z,15.43
2019-01-30T16:44:05.653Z,15.03
2019-01-30T16:46:38.310Z,17.60
2019-01-30T16:49:10.760Z,20.30
2019-01-30T16:51:45.041Z,21.37
2019-01-30T16:54:16.207Z,20.60
2019-01-30T16:56:52.022Z,23.83
2019-01-30T16:59:21.763Z,16.93
2019-01-30T17:01:52.017Z,19.10
2019-01-30T17:04:21.747Z,20.57
2019-01-30T17:06:51.517Z,22.40
2019-01-30T17:09:23.059Z,21.70
2019-01-30T17:11:54.003Z,18.80
2019-01-30T17:14:27.109Z,19.20
2019-01-30T17:17:03.577Z,18.50
2019-01-30T17:19:40.229Z,21.87
2019-01-30T17:22:12.704Z,18.57
2019-01-30T17:24:42.938Z,15.30
2019-01-30T17:27:14.001Z,14.77
2019-01-30T17:29:44.934Z,12.77
2019-01-30T17:32:17.428Z,10.83
2019-01-30T17:34:56.555Z,11.70
2019-01-30T17:37:29.196Z,9.67
2019-01-30T17:40:02.678Z,11.77
2019-01-30T17:42:35.609Z,9.07
2019-01-30T17:45:08.744Z,9.97
2019-01-30T17:47:40.214Z,9.37
2019-01-30T17:50:23.738Z,10.43
2019-01-30T17:53:05.928Z,15.53
2019-01-30T17:56:25.670Z,27.70
2019-01-30T17:58:41.778Z,24.07
2019-01-30T18:01:21.046Z,23.93
2019-01-30T18:03:55.870Z,20.00
2019-01-30T18:06:36.520Z,15.50
2019-01-30T18:09:08.005Z,17.23
2019-01-30T18:11:42.567Z,13.40
2019-01-30T18:14:16.546Z,12.80
2019-01-30T18:16:48.998Z,11.70
2019-01-30T18:19:22.109Z,14.07
2019-01-30T18:21:51.846Z,13.97
2019-01-30T18:24:22.062Z,12.63
2019-01-30T18:26:52.721Z,11.47
2019-01-30T18:29:22.397Z,11.30
2019-01-30T18:31:52.060Z,10.10
2019-01-30T18:34:21.805Z,10.90
2019-01-30T18:36:54.017Z,10.70
2019-01-30T18:39:33.581Z,9.90
2019-01-30T18:42:08.761Z,9.97
2019-01-30T18:44:42.877Z,18.93
2019-01-30T18:47:18.140Z,14.37
2019-01-30T18:49:54.194Z,12.50
2019-01-30T18:52:29.054Z,12.53
2019-01-30T18:55:03.072Z,14.50
2019-01-30T18:57:35.599Z,13.13
2019-01-30T19:00:20.062Z,14.13
2019-01-30T19:02:51.347Z,12.17
2019-01-30T19:05:23.712Z,12.77
2019-01-30T19:07:55.735Z,10.57
2019-01-30T19:10:27.574Z,13.00
2019-01-30T19:12:57.581Z,12.33
2019-01-30T19:15:30.789Z,10.83
2019-01-30T19:18:09.361Z,15.47
2019-01-30T19:20:48.067Z,8.10
2019-01-30T19:23:18.677Z,8.87
2019-01-30T19:25:52.079Z,9.87
2019-01-30T19:28:24.563Z,7.17
2019-01-30T19:31:06.519Z,6.70
2019-01-30T19:33:38.831Z,6.63
2019-01-30T19:36:11.370Z,7.77
2019-01-30T19:38:41.116Z,7.30
2019-01-30T19:41:12.071Z,7.97
2019-01-30T19:43:43.603Z,10.83
2019-01-30T19:46:19.665Z,11.93
2019-01-30T19:48:57.817Z,8.73
2019-01-30T19:51:33.313Z,8.63
2019-01-30T19:54:11.786Z,9.23
2019-01-30T19:56:43.458Z,8.23
2019-01-30T19:59:17.647Z,6.47
2019-01-30T20:01:46.861Z,5.23
2019-01-30T20:04:22.367Z,5.73
2019-01-30T20:06:55.672Z,7.70
2019-01-30T20:09:32.865Z,7.00
2019-01-30T20:12:22.391Z,9.17
2019-01-30T20:14:54.297Z,11.03
2019-01-30T20:17:27.434Z,13.80
2019-01-30T20:19:58.247Z,8.00
2019-01-30T20:22:31.802Z,8.13
2019-01-30T20:25:02.953Z,9.97
2019-01-30T20:27:48.121Z,9.20
2019-01-30T20:30:25.882Z,8.90
2019-01-30T20:32:55.676Z,8.87
2019-01-30T20:35:30.418Z,11.50
2019-01-30T20:38:03.864Z,9.50
2019-01-30T20:40:35.304Z,8.67
2019-01-30T20:43:07.600Z,8.23
2019-01-30T20:45:38.271Z,8.53
2019-01-30T20:48:15.437Z,9.10
2019-01-30T20:50:47.752Z,6.80
2019-01-30T20:53:22.323Z,8.07
2019-01-30T20:55:56.094Z,7.40
2019-01-30T20:58:27.339Z,7.00
2019-01-30T21:00:58.007Z,6.17
2019-01-30T21:03:28.055Z,10.63
2019-01-30T21:05:59.532Z,6.60
2019-01-30T21:08:30.922Z,8.33
2019-01-30T21:11:09.691Z,8.60
2019-01-30T21:13:36.534Z,6.83
2019-01-30T21:16:07.782Z,7.57
2019-01-30T21:18:39.028Z,8.40
2019-01-30T21:21:09.192Z,7.27
2019-01-30T21:23:38.884Z,9.27
2019-01-30T21:26:12.553Z,8.33
2019-01-30T21:28:45.439Z,7.20
2019-01-30T21:31:17.304Z,5.87
2019-01-30T21:33:48.545Z,6.23
2019-01-30T21:36:18.186Z,5.10
2019-01-30T21:38:51.753Z,6.47
2019-01-30T21:41:21.471Z,6.23
2019-01-30T21:43:52.742Z,6.00
2019-01-30T21:46:25.079Z,7.37
2019-01-30T21:48:55.472Z,8.83
2019-01-30T21:51:25.147Z,8.03
2019-01-30T21:53:54.865Z,7.10
2019-01-30T21:56:26.816Z,14.13
2019-01-30T21:59:01.245Z,8.20
2019-01-30T22:01:31.954Z,8.17
2019-01-30T22:04:07.089Z,8.87
2019-01-30T22:06:39.730Z,9.43
2019-01-30T22:09:10.620Z,9.67
2019-01-30T22:11:45.603Z,9.07
2019-01-30T22:14:21.167Z,8.20
2019-01-30T22:16:52.882Z,8.13
2019-01-30T22:19:24.830Z,6.73
2019-01-30T22:22:00.558Z,8.40
2019-01-30T22:24:30.191Z,7.13
2019-01-30T22:26:59.852Z,6.77
2019-01-30T22:29:31.187Z,5.90
2019-01-30T22:32:00.924Z,7.20
2019-01-30T22:34:33.273Z,6.73
2019-01-30T22:37:07.360Z,6.30
2019-01-30T22:39:36.998Z,6.93
2019-01-30T22:42:07.644Z,6.67
2019-01-30T22:44:37.290Z,6.00
2019-01-30T22:47:08.290Z,8.63
2019-01-30T22:49:39.121Z,7.23
2019-01-30T22:52:11.163Z,20.37
2019-01-30T22:54:42.847Z,9.73
2019-01-30T22:57:12.812Z,10.77
2019-01-30T22:59:42.479Z,10.07
2019-01-30T23:02:12.177Z,7.17
2019-01-30T23:04:52.243Z,11.67
2019-01-30T23:07:33.738Z,6.93
2019-01-30T23:10:12.227Z,7.60
2019-01-30T23:13:07.190Z,7.97
2019-01-30T23:15:57.249Z,5.97
2019-01-30T23:18:51.314Z,5.87
2019-01-30T23:21:28.193Z,5.43
2019-01-30T23:24:39.863Z,5.30
2019-01-30T23:27:21.921Z,5.27
2019-01-30T23:30:12.367Z,5.53
2019-01-30T23:32:55.117Z,5.47
2019-01-30T23:35:44.761Z,4.97
2019-01-30T23:38:33.844Z,6.33
2019-01-30T23:40:57.445Z,5.40
2019-01-30T23:43:30.227Z,7.23
2019-01-30T23:46:08.776Z,7.40
2019-01-30T23:48:47.459Z,6.67
2019-01-30T23:51:39.527Z,6.67
2019-01-30T23:54:40.915Z,6.77
2019-01-30T23:57:45.213Z,5.37
